Time;durP1;ratioP1;P1;durP2;ratioP2;P2;SDS_P1;SDS_P2;PMS_P1;PMS_P2;Temp;Humidity;BMP_temperature;BMP_pressure;BME280_temperature;BME280_humidity;BME280_pressure;Samples;Min_cycle;Max_cycle;Signal;HPM_P1;HPM_P2
2022/12/20 00:01:56;;;;;;;9.47;8.47;;;3.50;99.90;;;;;;5070944;28;20257;-75
2022/12/20 00:04:24;;;;;;;12.60;8.50;;;3.50;99.90;;;;;;5071038;27;20194;-75
2022/12/20 00:06:53;;;;;;;11.10;7.63;;;3.50;99.90;;;;;;5070725;28;20213;-74
2022/12/20 00:09:21;;;;;;;11.10;7.70;;;3.50;99.90;;;;;;5070661;28;20633;-75
2022/12/20 00:11:51;;;;;;;13.77;8.20;;;3.50;99.90;;;;;;5070649;28;20284;-75
2022/12/20 00:14:19;;;;;;;8.50;7.27;;;3.50;99.90;;;;;;5070527;27;20230;-75
2022/12/20 00:16:48;;;;;;;10.07;7.13;;;3.60;99.90;;;;;;5070585;28;20248;-74
2022/12/20 00:19:18;;;;;;;10.73;7.47;;;3.60;99.90;;;;;;5070533;27;20741;-74
2022/12/20 00:21:46;;;;;;;7.83;6.27;;;3.60;99.90;;;;;;5070458;28;20228;-74
2022/12/20 00:24:15;;;;;;;9.67;6.87;;;3.60;99.90;;;;;;5070626;28;20453;-74
2022/12/20 00:26:51;;;;;;;8.17;7.17;;;3.60;99.90;;;;;;5070377;28;20197;-74
2022/12/20 00:29:20;;;;;;;9.53;6.93;;;3.70;99.90;;;;;;5070293;28;20661;-74
2022/12/20 00:31:48;;;;;;;8.57;6.27;;;3.70;99.90;;;;;;5139915;27;20677;-75
2022/12/20 00:34:18;;;;;;;7.03;6.33;;;3.70;99.90;;;;;;5139815;27;20227;-74
2022/12/20 00:36:47;;;;;;;9.40;6.40;;;3.80;99.90;;;;;;5070409;28;20198;-74
2022/12/20 00:39:15;;;;;;;10.50;6.60;;;3.80;99.90;;;;;;5070099;28;20302;-74
2022/12/20 00:41:44;;;;;;;8.10;6.07;;;3.80;99.90;;;;;;5070291;28;20267;-74
2022/12/20 00:44:14;;;;;;;8.47;6.67;;;3.80;99.90;;;;;;5139834;27;20259;-76
2022/12/20 00:46:43;;;;;;;6.53;5.93;;;3.90;99.90;;;;;;5139675;27;20202;-75
2022/12/20 00:49:11;;;;;;;7.00;5.67;;;3.90;99.90;;;;;;5070359;27;20224;-75
2022/12/20 00:51:41;;;;;;;7.27;5.90;;;4.00;99.90;;;;;;5139454;27;20695;-75
2022/12/20 00:54:10;;;;;;;7.80;6.10;;;4.00;99.90;;;;;;5069938;27;20686;-75
2022/12/20 00:56:39;;;;;;;6.87;5.97;;;4.10;99.90;;;;;;5069903;28;20200;-75
2022/12/20 00:59:07;;;;;;;9.77;6.70;;;4.10;99.90;;;;;;5069963;28;20298;-75
2022/12/20 01:01:36;;;;;;;7.50;6.43;;;4.10;99.90;;;;;;5069692;28;20733;-75
2022/12/20 01:04:05;;;;;;;8.43;6.80;;;4.20;99.90;;;;;;5069781;27;20202;-75
2022/12/20 01:06:34;;;;;;;8.47;7.03;;;4.20;99.90;;;;;;5069786;28;20670;-75
2022/12/20 01:09:05;;;;;;;7.33;6.07;;;4.20;99.90;;;;;;5069476;28;20309;-75
2022/12/20 01:11:36;;;;;;;8.40;6.70;;;4.20;99.90;;;;;;5139072;27;20202;-75
2022/12/20 01:14:07;;;;;;;8.10;6.57;;;4.20;99.90;;;;;;5069412;27;20699;-74
2022/12/20 01:16:38;;;;;;;8.67;7.57;;;4.30;99.90;;;;;;5069628;28;20193;-74
2022/12/20 01:19:10;;;;;;;7.73;6.80;;;4.30;99.90;;;;;;5138878;27;20210;-73
2022/12/20 01:21:43;;;;;;;7.70;6.27;;;4.30;99.90;;;;;;5138839;27;20199;-74
2022/12/20 01:24:14;;;;;;;8.83;7.30;;;4.40;99.90;;;;;;5069441;28;20672;-73
2022/12/20 01:26:43;;;;;;;7.83;7.03;;;4.40;99.90;;;;;;5069366;28;20193;-74
2022/12/20 01:29:12;;;;;;;7.00;6.30;;;4.40;99.90;;;;;;5069187;28;20222;-73
2022/12/20 01:31:43;;;;;;;7.73;6.90;;;4.40;99.90;;;;;;5138703;27;20195;-73
2022/12/20 01:34:12;;;;;;;9.27;6.90;;;4.40;99.90;;;;;;5069241;28;20625;-74
2022/12/20 01:36:41;;;;;;;7.67;6.70;;;4.50;99.90;;;;;;5069294;27;20221;-74
2022/12/20 01:39:14;;;;;;;7.97;7.17;;;4.50;99.90;;;;;;5138235;27;20223;-73
2022/12/20 01:41:44;;;;;;;8.60;6.67;;;4.50;99.90;;;;;;5068735;28;20274;-73
2022/12/20 01:44:50;;;;;;;8.27;7.10;;;4.40;99.90;;;;;;5069163;28;20207;-72
2022/12/20 01:47:19;;;;;;;10.53;8.07;;;4.50;99.90;;;;;;5069166;28;20667;-72
2022/12/20 01:49:51;;;;;;;8.57;7.67;;;4.40;99.90;;;;;;5068839;28;20382;-75
2022/12/20 01:52:28;;;;;;;7.57;6.50;;;4.40;99.90;;;;;;5069507;28;20191;-73
2022/12/20 01:55:04;;;;;;;8.83;7.63;;;4.40;99.90;;;;;;5068957;28;20722;-73
2022/12/20 01:57:38;;;;;;;11.03;7.50;;;4.40;99.90;;;;;;5138436;27;20204;-73
2022/12/20 02:00:09;;;;;;;7.97;7.17;;;4.50;99.90;;;;;;5138218;27;20609;-74
2022/12/20 02:02:42;;;;;;;11.53;7.80;;;4.50;99.90;;;;;;5068768;28;20568;-74
2022/12/20 02:05:13;;;;;;;8.87;7.73;;;4.50;99.90;;;;;;5068796;28;20222;-74
2022/12/20 02:07:48;;;;;;;9.63;7.80;;;4.50;99.90;;;;;;5068696;28;20196;-74
2022/12/20 02:10:20;;;;;;;9.13;8.17;;;4.50;99.90;;;;;;5137945;27;20213;-74
2022/12/20 02:12:55;;;;;;;11.70;9.07;;;4.50;99.90;;;;;;5068377;28;20213;-73
2022/12/20 02:15:41;;;;;;;9.00;8.10;;;4.60;99.90;;;;;;5068635;27;20255;-73
2022/12/20 02:18:22;;;;;;;12.50;8.57;;;4.60;99.90;;;;;;5068570;28;20219;-73
2022/12/20 02:21:11;;;;;;;10.87;9.20;;;4.60;99.90;;;;;;5137885;27;20202;-73
2022/12/20 02:24:14;;;;;;;11.90;9.20;;;4.60;99.90;;;;;;5068858;27;20226;-74
2022/12/20 02:27:31;;;;;;;10.70;8.50;;;4.70;99.90;;;;;;5068336;28;20187;-74
2022/12/20 02:30:16;;;;;;;12.13;9.13;;;4.60;99.90;;;;;;5137624;27;20235;-74
2022/12/20 02:32:52;;;;;;;11.77;9.17;;;4.60;99.90;;;;;;5136149;27;20207;-74
2022/12/20 02:35:24;;;;;;;13.50;9.67;;;4.60;99.90;;;;;;5137742;27;20295;-73
2022/12/20 02:37:55;;;;;;;12.10;9.40;;;4.70;99.90;;;;;;5068505;28;20199;-74
2022/12/20 02:40:27;;;;;;;14.67;10.57;;;4.70;99.90;;;;;;5137981;27;20568;-74
2022/12/20 02:43:00;;;;;;;15.80;11.50;;;4.70;99.90;;;;;;5068333;28;20200;-74
2022/12/20 02:45:33;;;;;;;15.90;11.60;;;4.70;99.90;;;;;;5068158;28;20263;-74
2022/12/20 02:48:05;;;;;;;17.90;12.40;;;4.80;99.90;;;;;;5068283;28;20203;-74
2022/12/20 02:50:39;;;;;;;17.37;12.70;;;4.80;99.90;;;;;;5137500;27;20629;-74
2022/12/20 02:53:08;;;;;;;17.53;12.60;;;4.80;99.90;;;;;;5071935;28;20193;-74
2022/12/20 02:55:46;;;;;;;18.53;13.17;;;4.80;99.90;;;;;;5141660;27;20198;-74
2022/12/20 02:58:23;;;;;;;20.80;13.10;;;4.90;99.90;;;;;;5142021;27;20291;-74
2022/12/20 03:00:56;;;;;;;16.97;13.67;;;4.90;99.90;;;;;;5141646;27;20209;-74
2022/12/20 03:03:26;;;;;;;19.40;13.87;;;4.90;99.90;;;;;;5071739;28;20215;-74
2022/12/20 03:05:56;;;;;;;20.57;14.00;;;4.90;99.90;;;;;;5071821;27;20194;-74
2022/12/20 03:08:26;;;;;;;22.07;14.37;;;4.90;99.90;;;;;;5141470;27;20757;-74
2022/12/20 03:10:56;;;;;;;22.67;14.77;;;4.90;99.90;;;;;;5141360;27;20200;-73
2022/12/20 03:13:25;;;;;;;24.80;15.73;;;4.90;99.90;;;;;;5071524;27;20190;-74
2022/12/20 03:16:04;;;;;;;25.47;16.13;;;5.00;99.90;;;;;;5141311;27;20199;-73
2022/12/20 03:18:32;;;;;;;25.30;17.23;;;5.00;99.90;;;;;;5141059;27;20208;-74
2022/12/20 03:21:01;;;;;;;27.50;16.83;;;5.00;99.90;;;;;;5071375;28;20223;-73
2022/12/20 03:23:30;;;;;;;24.10;16.47;;;5.00;99.90;;;;;;5071407;28;20275;-73
2022/12/20 03:25:58;;;;;;;27.43;17.60;;;5.10;99.90;;;;;;5140844;27;20267;-72
2022/12/20 03:28:35;;;;;;;30.10;18.37;;;5.10;99.90;;;;;;5071184;28;20613;-73
2022/12/20 03:31:07;;;;;;;32.03;19.60;;;5.10;99.90;;;;;;5140768;27;20289;-73
2022/12/20 03:33:44;;;;;;;31.57;19.13;;;5.10;99.90;;;;;;5140923;27;20200;-73
2022/12/20 03:36:12;;;;;;;33.70;19.47;;;5.10;99.90;;;;;;5140836;27;20210;-73
2022/12/20 03:38:41;;;;;;;30.60;18.73;;;5.10;99.90;;;;;;5140842;27;20221;-73
2022/12/20 03:41:10;;;;;;;31.63;20.40;;;5.10;99.90;;;;;;5070995;28;20276;-73
2022/12/20 03:43:39;;;;;;;36.33;20.10;;;5.10;99.90;;;;;;5140757;27;20214;-73
2022/12/20 03:46:09;;;;;;;36.57;20.43;;;5.10;99.90;;;;;;5140829;27;20718;-73
2022/12/20 03:48:38;;;;;;;33.63;20.03;;;5.10;99.90;;;;;;5071265;28;20608;-72
2022/12/20 03:51:08;;;;;;;36.97;20.90;;;5.10;99.90;;;;;;5140665;27;20211;-73
2022/12/20 03:53:36;;;;;;;35.50;20.80;;;5.20;99.90;;;;;;5070753;28;20190;-72
2022/12/20 03:56:06;;;;;;;34.13;20.23;;;5.20;99.90;;;;;;5140476;27;20606;-73
2022/12/20 03:58:35;;;;;;;33.70;20.77;;;5.20;99.90;;;;;;5140388;27;20200;-74
2022/12/20 04:01:19;;;;;;;31.83;19.13;;;5.10;99.90;;;;;;5140328;27;20219;-73
2022/12/20 04:03:48;;;;;;;35.10;21.53;;;5.20;99.90;;;;;;5139811;27;20748;-73
2022/12/20 04:06:17;;;;;;;36.03;21.87;;;5.20;99.90;;;;;;5140630;27;20212;-74
2022/12/20 04:08:47;;;;;;;37.37;21.73;;;5.20;99.90;;;;;;5140311;27;20256;-74
2022/12/20 04:11:23;;;;;;;35.37;19.63;;;5.20;99.90;;;;;;5140312;27;20268;-73
2022/12/20 04:14:10;;;;;;;34.03;21.13;;;5.20;99.90;;;;;;5139988;27;20236;-74
2022/12/20 04:16:40;;;;;;;36.57;21.93;;;5.20;99.90;;;;;;5140326;27;20597;-74
2022/12/20 04:19:11;;;;;;;37.07;21.00;;;5.20;99.90;;;;;;5140365;27;20205;-73
2022/12/20 04:21:44;;;;;;;36.70;21.77;;;5.20;99.90;;;;;;5140080;27;20208;-73
2022/12/20 04:24:15;;;;;;;36.10;21.13;;;5.30;99.90;;;;;;5137973;27;20200;-73
2022/12/20 04:26:54;;;;;;;35.30;21.10;;;5.20;99.90;;;;;;5140063;27;20233;-72
2022/12/20 04:29:23;;;;;;;41.87;20.53;;;5.20;99.90;;;;;;5070368;28;20601;-72
2022/12/20 04:31:57;;;;;;;40.63;23.03;;;5.30;99.90;;;;;;5139604;27;20254;-72
2022/12/20 04:34:26;;;;;;;40.93;22.70;;;5.30;99.90;;;;;;5070577;28;20529;-73
2022/12/20 04:36:56;;;;;;;41.57;22.07;;;5.40;99.90;;;;;;5139951;27;20195;-71
2022/12/20 04:39:36;;;;;;;42.03;22.47;;;5.30;99.90;;;;;;5139655;27;20246;-72
2022/12/20 04:42:36;;;;;;;36.93;21.23;;;5.30;99.90;;;;;;5139555;27;20215;-73
2022/12/20 04:45:07;;;;;;;37.27;22.37;;;5.30;99.90;;;;;;5139886;27;20205;-73
2022/12/20 04:47:37;;;;;;;39.07;21.67;;;5.40;99.90;;;;;;5138759;27;20215;-74
2022/12/20 04:50:07;;;;;;;34.80;21.33;;;5.40;99.90;;;;;;5139413;27;20228;-74
2022/12/20 04:55:22;;;;;;;37.63;22.37;;;5.40;99.90;;;;;;5069835;28;20191;-74
2022/12/20 04:57:51;;;;;;;39.53;22.90;;;5.30;99.90;;;;;;5139397;27;20796;-74
2022/12/20 05:00:21;;;;;;;38.57;22.10;;;5.40;99.90;;;;;;5139517;27;20685;-74
2022/12/20 05:02:59;;;;;;;37.03;21.70;;;5.40;99.90;;;;;;5139168;27;20684;-74
2022/12/20 05:05:29;;;;;;;37.57;22.77;;;5.40;99.90;;;;;;5139194;27;20206;-74
2022/12/20 05:07:58;;;;;;;38.33;22.53;;;5.30;99.90;;;;;;5139002;27;20246;-73
2022/12/20 05:10:28;;;;;;;40.43;21.13;;;5.30;99.90;;;;;;5139158;27;20608;-73
2022/12/20 05:12:59;;;;;;;32.70;21.23;;;5.30;99.90;;;;;;5139059;27;20210;-73
2022/12/20 05:15:38;;;;;;;38.10;21.63;;;5.30;99.90;;;;;;5136248;27;20215;-73
2022/12/20 05:18:09;;;;;;;46.20;24.17;;;5.40;99.90;;;;;;5139564;27;20197;-73
2022/12/20 05:26:16;;;;;;;37.73;21.97;;;5.30;99.90;;;;;;5139070;27;20211;-73
2022/12/20 05:26:39;;;;;;;42.30;23.17;;;5.40;99.90;;;;;;5138357;27;20668;-73
2022/12/20 05:29:08;;;;;;;41.60;23.63;;;5.40;99.90;;;;;;5069597;28;20574;-75
2022/12/20 05:31:37;;;;;;;43.40;24.63;;;5.40;99.90;;;;;;5138110;27;20245;-74
2022/12/20 05:34:07;;;;;;;42.73;23.23;;;5.40;99.90;;;;;;5138687;27;20264;-75
2022/12/20 05:36:38;;;;;;;42.33;23.50;;;5.40;99.90;;;;;;5138656;27;20235;-74
2022/12/20 05:39:11;;;;;;;40.67;24.60;;;5.40;99.90;;;;;;5138664;27;20209;-74
2022/12/20 05:41:42;;;;;;;44.03;23.77;;;5.40;99.90;;;;;;5138498;27;20207;-73
2022/12/20 05:44:11;;;;;;;41.83;23.23;;;5.40;99.90;;;;;;5138307;27;20228;-74
2022/12/20 05:46:43;;;;;;;40.23;21.80;;;5.40;99.90;;;;;;5138310;27;20646;-74
2022/12/20 05:49:19;;;;;;;45.73;22.77;;;5.30;99.90;;;;;;5138313;27;20208;-74
2022/12/20 05:51:48;;;;;;;44.17;23.37;;;5.40;99.90;;;;;;5138437;27;20260;-75
2022/12/20 05:54:24;;;;;;;46.80;23.63;;;5.40;99.90;;;;;;5137591;27;20609;-75
2022/12/20 05:57:09;;;;;;;45.77;23.47;;;5.40;99.90;;;;;;5137998;27;20690;-74
2022/12/20 05:59:40;;;;;;;49.73;24.77;;;5.40;99.90;;;;;;5138055;27;20225;-74
2022/12/20 06:02:16;;;;;;;45.97;25.47;;;5.40;99.90;;;;;;5138214;27;20196;-74
2022/12/20 06:04:49;;;;;;;47.73;25.20;;;5.40;99.90;;;;;;5138285;27;20207;-75
2022/12/20 06:07:21;;;;;;;51.73;27.20;;;5.40;99.90;;;;;;5068832;28;20185;-75
2022/12/20 06:09:55;;;;;;;60.13;27.30;;;5.50;99.90;;;;;;5138201;27;20226;-74
2022/12/20 06:12:29;;;;;;;57.10;28.63;;;5.40;99.90;;;;;;5137874;27;20602;-74
2022/12/20 06:14:59;;;;;;;48.07;25.83;;;5.40;99.90;;;;;;5137798;27;20330;-75
2022/12/20 06:17:29;;;;;;;52.83;24.77;;;5.50;99.90;;;;;;5137818;27;20661;-74
2022/12/20 06:20:00;;;;;;;52.10;26.43;;;5.50;99.90;;;;;;5137887;27;20215;-74
2022/12/20 06:22:29;;;;;;;55.27;26.43;;;5.50;99.90;;;;;;5138047;27;20606;-74
2022/12/20 06:24:58;;;;;;;51.90;26.33;;;5.50;99.90;;;;;;5137830;27;20771;-74
2022/12/20 06:27:31;;;;;;;55.57;27.70;;;5.50;99.90;;;;;;5137338;27;20208;-74
2022/12/20 06:30:11;;;;;;;51.03;26.33;;;5.50;99.90;;;;;;5137693;27;20201;-76
2022/12/20 06:32:58;;;;;;;56.37;28.27;;;5.40;99.90;;;;;;5067528;28;20239;-74
2022/12/20 06:35:28;;;;;;;49.33;25.77;;;5.50;99.90;;;;;;5136965;27;20688;-74
2022/12/20 06:37:57;;;;;;;52.93;26.67;;;5.50;99.90;;;;;;5136895;27;20298;-75
2022/12/20 06:40:28;;;;;;;50.17;25.07;;;5.50;99.90;;;;;;5136878;27;20811;-75
2022/12/20 06:43:00;;;;;;;58.93;27.30;;;5.50;99.90;;;;;;5136607;27;20584;-74
2022/12/20 06:45:28;;;;;;;58.23;26.60;;;5.40;99.90;;;;;;5136770;27;20201;-74
2022/12/20 06:47:59;;;;;;;61.73;26.70;;;5.50;99.90;;;;;;5136731;27;20658;-74
2022/12/20 06:50:32;;;;;;;54.20;27.53;;;5.40;99.90;;;;;;5136560;27;20590;-74
2022/12/20 06:53:00;;;;;;;59.67;28.50;;;5.40;99.90;;;;;;5136703;27;20199;-75
2022/12/20 06:55:29;;;;;;;58.17;28.50;;;5.40;99.90;;;;;;5136525;27;20203;-75
2022/12/20 06:57:58;;;;;;;57.73;28.63;;;5.50;99.90;;;;;;5136860;27;20205;-74
2022/12/20 07:00:27;;;;;;;55.77;27.57;;;5.50;99.90;;;;;;5134186;27;20272;-73
2022/12/20 07:02:56;;;;;;;58.93;28.10;;;5.40;99.90;;;;;;5041533;27;20209;-74
2022/12/20 07:05:26;;;;;;;55.63;26.23;;;5.50;99.90;;;;;;5028164;28;20243;-74
2022/12/20 07:07:56;;;;;;;62.30;28.57;;;5.40;99.90;;;;;;5028008;28;20224;-74
2022/12/20 07:10:25;;;;;;;60.90;28.90;;;5.40;99.90;;;;;;5027847;28;20242;-74
2022/12/20 07:12:53;;;;;;;60.97;27.90;;;5.50;99.90;;;;;;5027440;28;20581;-74
2022/12/20 07:15:22;;;;;;;65.77;28.43;;;5.40;99.90;;;;;;5045719;27;20234;-74
2022/12/20 07:17:51;;;;;;;57.60;27.13;;;5.50;99.90;;;;;;5047719;28;20320;-74
2022/12/20 07:20:20;;;;;;;59.37;28.03;;;5.50;99.90;;;;;;5047702;28;20190;-75
2022/12/20 07:22:48;;;;;;;61.47;27.43;;;5.60;99.90;;;;;;5047346;28;20205;-75
2022/12/20 07:25:19;;;;;;;65.33;27.77;;;5.60;99.90;;;;;;5047684;28;20249;-76
2022/12/20 07:27:48;;;;;;;54.80;27.53;;;5.50;99.90;;;;;;5047611;28;20659;-72
2022/12/20 07:30:19;;;;;;;60.27;31.43;;;5.50;99.90;;;;;;5053102;28;20682;-74
2022/12/20 07:32:48;;;;;;;61.03;29.00;;;5.50;99.90;;;;;;5067406;28;20754;-74
2022/12/20 07:35:17;;;;;;;55.50;27.73;;;5.60;99.90;;;;;;5067915;27;20205;-74
2022/12/20 07:37:45;;;;;;;67.80;29.23;;;5.60;99.90;;;;;;5067553;28;20197;-73
2022/12/20 07:40:16;;;;;;;57.87;27.30;;;5.60;99.90;;;;;;5070844;28;20207;-74
2022/12/20 07:42:46;;;;;;;58.63;27.57;;;5.60;99.90;;;;;;5070505;28;20210;-73
2022/12/20 07:45:16;;;;;;;54.37;27.43;;;5.70;99.90;;;;;;5070381;28;20189;-77
2022/12/20 07:47:45;;;;;;;53.07;26.30;;;5.70;99.90;;;;;;5052217;28;20538;-75
2022/12/20 07:50:14;;;;;;;53.90;28.53;;;5.70;99.90;;;;;;5070582;28;20593;-75
2022/12/20 07:52:46;;;;;;;53.63;28.03;;;5.70;99.90;;;;;;5070319;28;20252;-74
2022/12/20 07:55:15;;;;;;;48.60;25.07;;;5.80;99.90;;;;;;5070674;28;20201;-76
2022/12/20 07:57:50;;;;;;;62.33;35.20;;;5.80;99.90;;;;;;5070662;28;20283;-74
2022/12/20 08:00:19;;;;;;;52.10;27.00;;;5.80;99.90;;;;;;5051647;28;20205;-75
2022/12/20 08:02:54;;;;;;;47.77;26.23;;;5.80;99.90;;;;;;5070144;28;20188;-74
2022/12/20 08:05:24;;;;;;;46.27;24.90;;;5.90;99.90;;;;;;5070491;28;20199;-74
2022/12/20 08:07:56;;;;;;;47.17;26.43;;;5.80;99.90;;;;;;5071011;28;20254;-75
2022/12/20 08:10:28;;;;;;;44.90;25.43;;;5.80;99.90;;;;;;5071313;27;20200;-75
2022/12/20 08:13:01;;;;;;;52.63;26.70;;;5.90;99.90;;;;;;5070413;28;20662;-76
2022/12/20 08:15:30;;;;;;;43.47;23.90;;;5.90;99.90;;;;;;5070663;27;20759;-74
2022/12/20 08:17:58;;;;;;;47.63;26.13;;;5.90;99.90;;;;;;5070971;28;20206;-75
2022/12/20 08:20:27;;;;;;;42.07;23.73;;;5.90;99.90;;;;;;5070837;28;20671;-74
2022/12/20 08:22:55;;;;;;;49.20;26.07;;;5.90;99.90;;;;;;5068301;27;20205;-74
2022/12/20 08:25:24;;;;;;;49.87;24.50;;;5.90;99.90;;;;;;5069992;28;20281;-76
2022/12/20 08:27:53;;;;;;;45.37;25.10;;;5.90;99.90;;;;;;5069993;28;20252;-75
2022/12/20 08:30:23;;;;;;;48.77;25.63;;;5.90;99.90;;;;;;5140361;27;20631;-74
2022/12/20 08:32:51;;;;;;;44.97;24.80;;;5.90;99.90;;;;;;5070341;28;20211;-74
2022/12/20 08:35:20;;;;;;;44.97;24.23;;;6.00;99.90;;;;;;5070823;28;20650;-75
2022/12/20 08:37:51;;;;;;;47.17;24.17;;;6.00;99.90;;;;;;5071057;28;20202;-74
2022/12/20 08:40:20;;;;;;;42.67;23.60;;;6.00;99.90;;;;;;5070668;28;20283;-75
2022/12/20 08:42:48;;;;;;;47.30;25.23;;;6.00;99.90;;;;;;5069538;28;20210;-74
2022/12/20 08:45:18;;;;;;;50.00;24.57;;;6.00;99.90;;;;;;5070538;28;20200;-75
2022/12/20 08:47:48;;;;;;;50.03;24.20;;;6.10;99.90;;;;;;5140019;27;20675;-75
2022/12/20 08:50:18;;;;;;;46.07;24.73;;;6.00;99.90;;;;;;5070276;28;20189;-74
2022/12/20 08:52:47;;;;;;;52.27;24.53;;;6.10;99.90;;;;;;5069826;27;20220;-76
2022/12/20 08:55:16;;;;;;;44.10;24.90;;;6.10;99.90;;;;;;5070195;28;20196;-75
2022/12/20 08:57:44;;;;;;;49.63;25.60;;;6.10;99.90;;;;;;5069777;28;20203;-74
2022/12/20 09:00:15;;;;;;;48.77;24.13;;;6.10;99.90;;;;;;5070362;28;20242;-76
2022/12/20 09:02:43;;;;;;;51.07;24.97;;;6.20;99.90;;;;;;5070064;28;20272;-76
2022/12/20 09:05:13;;;;;;;48.80;25.87;;;6.20;99.90;;;;;;5070321;27;20195;-74
2022/12/20 09:07:46;;;;;;;49.30;25.50;;;6.30;99.90;;;;;;5070205;28;20616;-76
2022/12/20 09:10:14;;;;;;;49.73;25.17;;;6.30;99.90;;;;;;5070324;28;20201;-74
2022/12/20 09:12:43;;;;;;;51.70;25.63;;;6.30;99.90;;;;;;5069314;28;20272;-75
2022/12/20 09:15:13;;;;;;;43.23;23.70;;;6.30;99.90;;;;;;5070035;27;20713;-74
2022/12/20 09:17:42;;;;;;;43.17;24.33;;;6.30;99.90;;;;;;5070090;27;20241;-76
2022/12/20 09:20:11;;;;;;;46.50;24.90;;;6.30;99.90;;;;;;5070124;28;20193;-78
2022/12/20 09:22:42;;;;;;;52.57;24.60;;;6.20;99.90;;;;;;5069452;27;20722;-75
2022/12/20 09:25:11;;;;;;;45.73;25.03;;;6.30;99.90;;;;;;5070429;28;20227;-73
2022/12/20 09:27:40;;;;;;;46.13;24.80;;;6.30;99.90;;;;;;5069394;28;20191;-75
2022/12/20 09:30:10;;;;;;;48.60;24.90;;;6.30;99.90;;;;;;5069932;28;20189;-74
2022/12/20 09:32:41;;;;;;;46.87;23.77;;;6.40;99.90;;;;;;5069520;28;20228;-74
2022/12/20 09:35:10;;;;;;;41.87;25.10;;;6.40;99.90;;;;;;5069550;28;20196;-75
2022/12/20 09:37:41;;;;;;;45.63;24.50;;;6.40;99.90;;;;;;5069762;28;20287;-75
2022/12/20 09:40:19;;;;;;;41.93;23.87;;;6.40;99.90;;;;;;5069346;28;20662;-74
2022/12/20 09:42:50;;;;;;;40.33;23.83;;;6.40;99.90;;;;;;5069303;28;20189;-75
2022/12/20 09:45:25;;;;;;;42.40;23.83;;;6.40;99.90;;;;;;5069626;28;20653;-75
2022/12/20 09:47:55;;;;;;;40.90;23.87;;;6.40;99.90;;;;;;5069569;28;20276;-76
2022/12/20 09:50:41;;;;;;;38.43;23.20;;;6.40;99.90;;;;;;5069422;28;20689;-75
2022/12/20 09:53:22;;;;;;;41.37;22.77;;;6.40;99.90;;;;;;5068943;27;20223;-76
2022/12/20 09:55:56;;;;;;;41.90;23.03;;;6.40;99.90;;;;;;5068892;28;20694;-76
2022/12/20 09:58:54;;;;;;;62.07;33.63;;;6.40;99.90;;;;;;5069088;28;20666;-76
2022/12/20 10:01:26;;;;;;;72.00;39.17;;;6.40;99.90;;;;;;5068687;28;20201;-76
2022/12/20 10:04:04;;;;;;;39.27;23.60;;;6.50;99.90;;;;;;5068812;28;20200;-76
2022/12/20 10:06:48;;;;;;;39.70;23.43;;;6.40;99.90;;;;;;5068789;28;20195;-76
2022/12/20 10:09:36;;;;;;;43.20;23.40;;;6.40;99.90;;;;;;5068777;28;20194;-75
2022/12/20 10:12:15;;;;;;;42.20;23.33;;;6.40;99.90;;;;;;5068383;28;20196;-75
2022/12/20 10:14:55;;;;;;;38.97;23.43;;;6.40;99.90;;;;;;5137706;27;20595;-75
2022/12/20 10:17:33;;;;;;;39.63;21.83;;;6.40;99.90;;;;;;5068595;28;20197;-76
2022/12/20 10:20:19;;;;;;;41.50;23.17;;;6.40;99.90;;;;;;5068529;28;20247;-76
2022/12/20 10:22:54;;;;;;;37.97;22.63;;;6.40;99.90;;;;;;5068559;28;20248;-75
2022/12/20 10:25:30;;;;;;;41.63;23.60;;;6.40;99.90;;;;;;5066596;27;20271;-75
2022/12/20 10:28:05;;;;;;;40.40;25.27;;;6.40;99.90;;;;;;5069163;28;20223;-74
2022/12/20 10:30:35;;;;;;;44.80;23.87;;;6.40;99.90;;;;;;5068282;28;20203;-75
2022/12/20 10:33:04;;;;;;;41.60;23.57;;;6.40;99.90;;;;;;5138134;27;20242;-76
2022/12/20 10:35:39;;;;;;;39.97;23.77;;;6.40;99.90;;;;;;5068317;28;20189;-77
2022/12/20 10:38:11;;;;;;;42.67;23.07;;;6.40;99.90;;;;;;5067903;27;20214;-74
2022/12/20 10:40:43;;;;;;;39.27;23.93;;;6.40;99.90;;;;;;5068761;28;20535;-75
2022/12/20 10:43:43;;;;;;;42.67;23.83;;;6.50;99.90;;;;;;5068277;28;20239;-76
2022/12/20 10:46:13;;;;;;;41.43;22.53;;;6.50;99.90;;;;;;5068044;28;20617;-75
2022/12/20 10:48:44;;;;;;;40.63;21.57;;;6.50;99.90;;;;;;5068130;28;20196;-73
2022/12/20 10:51:18;;;;;;;45.13;23.80;;;6.50;99.90;;;;;;5067845;27;20266;-75
2022/12/20 10:53:56;;;;;;;47.60;23.53;;;6.50;99.90;;;;;;5068740;28;20221;-75
2022/12/20 10:56:28;;;;;;;43.07;23.53;;;6.60;99.90;;;;;;5068197;28;20573;-75
2022/12/20 10:59:00;;;;;;;47.80;25.53;;;6.60;99.90;;;;;;5068229;27;20195;-74
2022/12/20 11:01:31;;;;;;;41.90;24.47;;;6.70;99.90;;;;;;5068534;28;20193;-74
2022/12/20 11:04:02;;;;;;;47.23;25.27;;;6.70;99.90;;;;;;5067945;28;20239;-74
2022/12/20 11:06:43;;;;;;;46.07;24.33;;;6.70;99.90;;;;;;5067781;27;20204;-75
2022/12/20 11:09:24;;;;;;;48.83;23.73;;;6.70;99.90;;;;;;5067641;27;20200;-74
2022/12/20 11:12:06;;;;;;;41.73;24.17;;;6.70;99.90;;;;;;5067480;27;20203;-74
2022/12/20 11:14:37;;;;;;;40.83;22.87;;;6.70;99.90;;;;;;5070997;27;20235;-74
2022/12/20 11:17:24;;;;;;;44.03;26.40;;;6.70;99.90;;;;;;5071388;28;20192;-74
2022/12/20 11:20:12;;;;;;;36.77;21.87;;;6.70;99.90;;;;;;5071354;28;20283;-74
2022/12/20 11:22:52;;;;;;;41.77;23.13;;;6.70;99.90;;;;;;5071392;27;20269;-75
2022/12/20 11:25:34;;;;;;;38.00;22.33;;;6.70;99.90;;;;;;5069030;27;20223;-74
2022/12/20 11:28:20;;;;;;;40.03;22.00;;;6.70;99.90;;;;;;5070562;27;20667;-75
2022/12/20 11:31:02;;;;;;;39.70;22.73;;;6.70;99.90;;;;;;5071141;27;20197;-75
2022/12/20 11:33:48;;;;;;;51.67;23.03;;;6.80;99.90;;;;;;5071792;28;20205;-75
2022/12/20 11:36:25;;;;;;;37.57;21.23;;;6.80;99.90;;;;;;5071591;27;20202;-75
2022/12/20 11:39:04;;;;;;;36.83;21.33;;;6.80;99.90;;;;;;5071266;27;20197;-75
2022/12/20 11:41:41;;;;;;;39.57;21.63;;;6.80;99.90;;;;;;5071090;28;20284;-75
2022/12/20 11:44:22;;;;;;;46.63;23.03;;;6.70;99.90;;;;;;5070884;27;20654;-75
2022/12/20 11:47:09;;;;;;;38.73;21.83;;;6.70;99.90;;;;;;5071637;28;20216;-75
2022/12/20 11:49:53;;;;;;;45.33;23.33;;;6.70;99.90;;;;;;5070993;28;20560;-75
2022/12/20 11:52:34;;;;;;;43.27;22.90;;;6.70;99.90;;;;;;5070357;27;20200;-75
2022/12/20 11:55:14;;;;;;;47.43;23.20;;;6.80;99.90;;;;;;5070809;28;20221;-75
2022/12/20 11:57:47;;;;;;;42.87;22.50;;;6.80;99.90;;;;;;5070837;28;20203;-77
2022/12/20 12:00:41;;;;;;;42.57;21.47;;;6.80;99.90;;;;;;5070810;27;20567;-77
2022/12/20 12:03:14;;;;;;;38.23;21.43;;;6.70;99.90;;;;;;5070467;28;20189;-74
2022/12/20 12:05:46;;;;;;;38.60;21.70;;;6.80;99.90;;;;;;5070830;27;20816;-77
2022/12/20 12:08:19;;;;;;;41.37;21.90;;;6.80;99.90;;;;;;5070951;27;20205;-75
2022/12/20 12:10:58;;;;;;;36.27;20.97;;;6.80;99.90;;;;;;5070714;28;20196;-75
2022/12/20 12:13:29;;;;;;;35.23;21.27;;;6.80;99.90;;;;;;5069776;27;20212;-76
2022/12/20 12:16:06;;;;;;;34.70;20.37;;;6.80;99.90;;;;;;5070507;28;20662;-74
2022/12/20 12:18:37;;;;;;;39.33;20.53;;;6.80;99.90;;;;;;5070737;27;20201;-75
2022/12/20 12:21:12;;;;;;;39.67;22.27;;;6.90;99.90;;;;;;5070289;27;20577;-74
2022/12/20 12:23:55;;;;;;;37.90;23.00;;;6.90;99.90;;;;;;5069660;28;20211;-75
2022/12/20 12:26:27;;;;;;;33.77;21.73;;;6.90;99.90;;;;;;5070699;27;20200;-78
2022/12/20 12:28:59;;;;;;;35.13;21.93;;;6.90;99.90;;;;;;5070140;28;20197;-73
2022/12/20 12:31:36;;;;;;;30.43;19.13;;;6.90;99.90;;;;;;5070418;28;20205;-79
2022/12/20 12:34:18;;;;;;;37.40;20.83;;;6.90;99.90;;;;;;5069957;28;20237;-75
2022/12/20 12:37:26;;;;;;;40.53;21.93;;;6.90;99.90;;;;;;5070144;28;20193;-75
2022/12/20 12:40:21;;;;;;;38.63;22.83;;;7.00;99.90;;;;;;5070220;28;20246;-77
2022/12/20 12:43:08;;;;;;;38.97;23.43;;;7.00;99.90;;;;;;5070045;27;20216;-78
2022/12/20 12:45:43;;;;;;;41.37;22.77;;;7.00;99.90;;;;;;5070086;28;20230;-78
2022/12/20 12:48:19;;;;;;;36.03;20.77;;;7.00;99.90;;;;;;5070205;28;20291;-75
2022/12/20 12:50:50;;;;;;;38.87;22.20;;;7.00;99.90;;;;;;5070050;28;20209;-75
2022/12/20 12:53:22;;;;;;;38.73;21.53;;;7.10;99.90;;;;;;5069884;27;20204;-75
2022/12/20 12:55:53;;;;;;;36.60;21.27;;;7.10;99.90;;;;;;5070020;28;20650;-75
2022/12/20 12:58:35;;;;;;;35.43;19.80;;;7.10;99.90;;;;;;5069789;27;20562;-77
2022/12/20 13:01:10;;;;;;;32.20;19.03;;;7.10;99.90;;;;;;5069698;27;20202;-76
2022/12/20 13:03:44;;;;;;;32.07;20.03;;;7.10;99.90;;;;;;5070389;28;20722;-75
2022/12/20 13:07:05;;;;;;;38.17;20.33;;;7.10;99.90;;;;;;5069982;28;20218;-77
2022/12/20 13:09:40;;;;;;;35.13;20.57;;;7.10;99.90;;;;;;5069692;28;20558;-75
2022/12/20 13:12:55;;;;;;;36.37;20.10;;;7.10;99.90;;;;;;5069978;28;20199;-76
2022/12/20 13:15:49;;;;;;;34.13;20.17;;;7.10;99.90;;;;;;5090291;28;20243;-76
2022/12/20 13:18:26;;;;;;;33.80;20.93;;;7.10;99.90;;;;;;5090594;28;20291;-75
2022/12/20 13:21:35;;;;;;;33.20;20.10;;;7.00;99.90;;;;;;5088123;28;20211;-76